Terminal Aerodrome Forecast
Issued by NWS

Home | Current Version | Previous Version | Text Only | Print | Product List | Glossary On
Versions: 1 2 3 4 5 6 7 8 9 10 11 12 13 14 15 16 17 18 19 20 21 22 23 24 25 26 27 28 29 30
510
FTUS45 KTFX 140539
TAFHVR
TAF
KHVR 140539Z 1406/1506 26007KT P6SM BKN080
     FM141400 23016KT P6SM BKN120
     FM150000 26008KT P6SM SCT090 BKN200=

USA.gov is the U.S. government's official web portal to all federal, state and local government web resources and services.